createdAt,value
2019-02-26T00:01:23.445Z,81.84
2019-02-26T00:03:53.998Z,81.92
2019-02-26T00:06:26.243Z,81.75
2019-02-26T00:08:59.497Z,81.73
2019-02-26T00:11:33.415Z,80.91
2019-02-26T00:14:04.478Z,80.76
2019-02-26T00:16:37.614Z,79.86
2019-02-26T00:19:09.826Z,78.92
2019-02-26T00:21:40.690Z,78.53
2019-02-26T00:24:12.803Z,78.20
2019-02-26T00:26:45.172Z,78.12
2019-02-26T00:29:16.268Z,78.13
2019-02-26T00:31:48.990Z,78.45
2019-02-26T00:34:20.672Z,78.59
2019-02-26T00:36:51.698Z,77.82
2019-02-26T00:39:23.374Z,78.90
2019-02-26T00:41:55.778Z,77.51
2019-02-26T00:44:29.814Z,76.96
2019-02-26T00:47:02.547Z,76.94
2019-02-26T00:49:33.198Z,77.37
2019-02-26T00:52:06.228Z,76.31
2019-02-26T00:54:36.730Z,76.61
2019-02-26T00:57:08.619Z,75.99
2019-02-26T00:59:41.243Z,75.63
2019-02-26T01:02:12.740Z,76.34
2019-02-26T01:04:46.281Z,75.77
2019-02-26T01:07:19.014Z,75.73
2019-02-26T01:09:51.907Z,75.35
2019-02-26T01:12:22.778Z,75.45
2019-02-26T01:14:53.670Z,75.82
2019-02-26T01:17:24.484Z,76.52
2019-02-26T01:19:56.490Z,75.38
2019-02-26T01:22:28.288Z,75.36
2019-02-26T01:24:59.138Z,74.74
2019-02-26T01:27:30.138Z,75.03
2019-02-26T01:30:03.298Z,75.12
2019-02-26T01:32:33.888Z,75.79
2019-02-26T01:35:06.010Z,75.26
2019-02-26T01:37:37.482Z,75.19
2019-02-26T01:40:13.106Z,74.79
2019-02-26T01:42:47.328Z,74.66
2019-02-26T01:45:15.103Z,75.73
2019-02-26T01:47:48.319Z,75.13
2019-02-26T01:50:18.551Z,75.60
2019-02-26T01:52:51.277Z,75.04
2019-02-26T01:55:23.048Z,74.61
2019-02-26T01:57:58.464Z,74.90
2019-02-26T02:00:27.408Z,75.43
2019-02-26T02:02:58.250Z,74.59
2019-02-26T02:05:31.276Z,75.26
2019-02-26T02:08:01.872Z,76.37
2019-02-26T02:10:32.751Z,74.97
2019-02-26T02:13:04.794Z,75.07
2019-02-26T02:15:37.909Z,75.17
2019-02-26T02:18:09.738Z,74.74
2019-02-26T02:20:40.588Z,76.10
2019-02-26T02:23:11.622Z,75.67
2019-02-26T02:25:43.425Z,76.40
2019-02-26T02:28:19.206Z,75.62
2019-02-26T02:30:47.979Z,75.48
2019-02-26T02:33:23.470Z,76.80
2019-02-26T02:35:51.870Z,75.66
2019-02-26T02:38:23.021Z,75.30
2019-02-26T02:40:54.939Z,76.32
2019-02-26T02:43:25.512Z,77.00
2019-02-26T02:45:58.238Z,77.12
2019-02-26T02:48:27.680Z,76.05
2019-02-26T02:50:59.713Z,77.97
2019-02-26T02:53:32.352Z,76.35
2019-02-26T02:56:03.853Z,76.84
2019-02-26T02:58:35.050Z,78.24
2019-02-26T03:01:07.040Z,75.97
2019-02-26T03:03:38.082Z,77.49
2019-02-26T03:06:12.254Z,77.97
2019-02-26T03:08:45.111Z,76.12
2019-02-26T03:11:14.946Z,76.39
2019-02-26T03:13:48.336Z,76.37
2019-02-26T03:16:21.102Z,77.08
2019-02-26T03:18:51.432Z,78.38
2019-02-26T03:21:24.559Z,77.68
2019-02-26T03:23:57.676Z,76.94
2019-02-26T03:26:28.026Z,77.04
2019-02-26T03:28:58.700Z,77.45
2019-02-26T03:31:34.560Z,77.91
2019-02-26T03:34:08.863Z,78.51
2019-02-26T03:36:37.365Z,76.88
2019-02-26T03:39:08.301Z,78.49
2019-02-26T03:41:39.571Z,79.27
2019-02-26T03:44:10.484Z,77.38
2019-02-26T03:46:41.579Z,78.54
2019-02-26T03:49:12.620Z,79.43
2019-02-26T03:51:43.723Z,78.94
2019-02-26T03:54:14.736Z,79.15
2019-02-26T03:56:45.940Z,78.64
2019-02-26T03:59:16.884Z,79.10
2019-02-26T04:01:47.860Z,79.18
2019-02-26T04:04:20.554Z,79.23
2019-02-26T04:06:51.580Z,80.18
2019-02-26T04:09:22.651Z,78.87
2019-02-26T04:11:55.396Z,80.27
2019-02-26T04:14:28.278Z,79.09
2019-02-26T04:17:00.722Z,79.37
2019-02-26T04:19:30.040Z,79.23
2019-02-26T04:22:27.840Z,80.83
2019-02-26T04:25:08.826Z,78.95
2019-02-26T04:28:10.222Z,79.53
2019-02-26T04:31:03.515Z,80.75
2019-02-26T04:34:25.010Z,80.19
2019-02-26T04:39:50.880Z,78.91
2019-02-26T04:43:02.047Z,80.21
2019-02-26T04:46:34.442Z,80.18
2019-02-26T04:49:04.810Z,81.12
2019-02-26T04:51:36.425Z,79.48
2019-02-26T04:54:08.245Z,80.64
2019-02-26T04:56:40.221Z,79.23
2019-02-26T04:59:12.543Z,80.24
2019-02-26T05:01:46.635Z,80.94
2019-02-26T05:04:16.780Z,79.92
2019-02-26T05:06:47.670Z,79.83
2019-02-26T05:09:18.660Z,79.85
2019-02-26T05:11:49.590Z,81.44
2019-02-26T05:14:23.457Z,80.67
2019-02-26T05:16:53.320Z,80.31
2019-02-26T05:19:24.470Z,80.27
2019-02-26T05:21:56.802Z,79.85
2019-02-26T05:24:28.259Z,80.54
2019-02-26T05:26:59.240Z,80.37
2019-02-26T05:29:30.171Z,79.97
2019-02-26T05:32:03.960Z,81.55
2019-02-26T05:34:33.880Z,80.28
2019-02-26T05:37:07.884Z,81.35
2019-02-26T05:39:37.480Z,81.12
2019-02-26T05:42:08.390Z,80.48
2019-02-26T05:44:39.479Z,81.27
2019-02-26T05:47:10.293Z,81.04
2019-02-26T05:49:43.341Z,80.67
2019-02-26T05:52:13.914Z,80.11
2019-02-26T05:54:44.870Z,80.80
2019-02-26T05:57:26.256Z,81.19
2019-02-26T05:59:49.030Z,81.01
2019-02-26T06:02:21.730Z,81.25
2019-02-26T06:04:52.950Z,80.63
2019-02-26T06:07:27.060Z,81.31
2019-02-26T06:09:59.080Z,81.44
2019-02-26T06:12:30.527Z,80.86
2019-02-26T06:15:05.153Z,81.42
2019-02-26T06:17:40.741Z,80.78
2019-02-26T06:20:17.150Z,79.94
2019-02-26T06:22:48.000Z,79.56
2019-02-26T06:25:23.809Z,80.41
2019-02-26T06:27:52.845Z,80.23
2019-02-26T06:30:23.959Z,80.00
2019-02-26T06:32:59.568Z,79.53
2019-02-26T06:35:27.581Z,80.21
2019-02-26T06:37:59.595Z,80.08
2019-02-26T06:40:34.443Z,80.26
2019-02-26T06:43:03.970Z,80.29
2019-02-26T06:45:35.498Z,79.50
2019-02-26T06:48:07.883Z,79.56
2019-02-26T06:50:41.078Z,79.21
2019-02-26T06:53:13.542Z,79.21
2019-02-26T06:55:44.040Z,78.97
2019-02-26T06:58:25.339Z,78.59
2019-02-26T07:00:57.600Z,78.32
2019-02-26T07:03:27.618Z,77.72
2019-02-26T07:06:01.713Z,78.60
2019-02-26T07:08:31.239Z,77.09
2019-02-26T07:11:03.869Z,76.89
2019-02-26T07:13:36.707Z,77.02
2019-02-26T07:16:07.870Z,76.44
2019-02-26T07:18:38.940Z,76.40
2019-02-26T07:21:10.039Z,75.29
2019-02-26T07:23:44.599Z,76.01
2019-02-26T07:26:18.507Z,74.86
2019-02-26T07:28:52.130Z,74.68
2019-02-26T07:31:26.438Z,74.09
2019-02-26T07:34:01.353Z,74.19
2019-02-26T07:36:35.732Z,73.97
2019-02-26T07:39:12.842Z,73.47
2019-02-26T07:41:49.210Z,72.83
2019-02-26T07:44:23.156Z,74.03
2019-02-26T07:46:54.010Z,73.94
2019-02-26T07:49:26.993Z,72.79
2019-02-26T07:52:02.683Z,72.19
2019-02-26T07:54:37.750Z,71.96
2019-02-26T07:57:11.629Z,72.82
2019-02-26T07:59:44.949Z,71.04
2019-02-26T08:02:15.636Z,70.86
2019-02-26T08:04:46.630Z,68.92
2019-02-26T08:07:19.152Z,68.60
2019-02-26T08:09:50.850Z,67.44
2019-02-26T08:12:22.150Z,66.48
2019-02-26T08:14:53.350Z,66.10
2019-02-26T08:17:24.268Z,65.61
2019-02-26T08:19:55.420Z,64.91
2019-02-26T08:22:27.545Z,65.08
2019-02-26T08:24:58.980Z,64.14
2019-02-26T08:27:30.848Z,62.12
2019-02-26T08:30:02.637Z,62.08
2019-02-26T08:35:00.649Z,60.96
2019-02-26T08:37:31.620Z,59.66
2019-02-26T08:40:02.792Z,60.41
2019-02-26T08:42:43.615Z,59.18
2019-02-26T08:45:17.841Z,57.61
2019-02-26T08:47:49.681Z,57.88
2019-02-26T08:50:20.432Z,58.69
2019-02-26T08:52:53.499Z,58.47
2019-02-26T08:55:24.570Z,57.28
2019-02-26T08:57:56.517Z,55.65
2019-02-26T09:00:27.641Z,55.78
2019-02-26T09:02:58.720Z,54.98
2019-02-26T09:05:31.706Z,54.83
2019-02-26T09:08:02.171Z,54.65
2019-02-26T09:10:33.160Z,52.54
2019-02-26T09:13:06.157Z,53.42
2019-02-26T09:15:39.064Z,53.26
2019-02-26T09:18:09.360Z,53.02
2019-02-26T09:20:40.350Z,52.39
2019-02-26T09:23:16.382Z,52.44
2019-02-26T09:25:46.430Z,51.88
2019-02-26T09:28:16.530Z,46.33
2019-02-26T09:30:47.550Z,48.97
2019-02-26T09:33:19.191Z,47.74
2019-02-26T09:35:51.935Z,46.76
2019-02-26T09:38:25.029Z,48.45
2019-02-26T09:40:57.125Z,49.27
2019-02-26T09:43:28.161Z,48.98
2019-02-26T09:45:59.010Z,44.91
2019-02-26T09:48:29.890Z,46.99
2019-02-26T09:51:00.920Z,47.14
2019-02-26T09:53:31.897Z,47.17
2019-02-26T09:56:02.684Z,49.50
2019-02-26T09:58:33.501Z,47.19
2019-02-26T10:01:06.263Z,49.14
2019-02-26T10:03:39.101Z,47.75
2019-02-26T10:06:11.424Z,46.65
2019-02-26T10:08:44.267Z,47.82
2019-02-26T10:11:18.509Z,49.11
2019-02-26T10:13:51.198Z,45.81
2019-02-26T10:16:23.907Z,47.50
2019-02-26T10:18:56.770Z,46.13
2019-02-26T10:21:32.206Z,47.65
2019-02-26T10:24:04.488Z,47.49
2019-02-26T10:26:36.649Z,46.71
2019-02-26T10:29:08.146Z,46.33
2019-02-26T10:31:41.013Z,45.27
2019-02-26T10:34:15.617Z,46.21
2019-02-26T10:36:49.321Z,46.54
2019-02-26T10:39:20.816Z,43.76
2019-02-26T10:41:52.696Z,44.62
2019-02-26T10:44:23.722Z,46.43
2019-02-26T10:46:54.793Z,46.39
2019-02-26T10:49:25.690Z,44.27
2019-02-26T10:51:57.858Z,43.53
2019-02-26T10:54:31.491Z,44.57
2019-02-26T10:57:06.383Z,46.12
2019-02-26T10:59:34.850Z,42.36
2019-02-26T11:02:05.920Z,43.15
2019-02-26T11:04:41.012Z,43.48
2019-02-26T11:07:11.515Z,44.66
2019-02-26T11:09:41.721Z,44.33
2019-02-26T11:12:12.680Z,41.97
2019-02-26T11:14:44.327Z,45.41
2019-02-26T11:17:15.857Z,41.49
2019-02-26T11:19:48.282Z,44.54
2019-02-26T11:22:21.292Z,44.00
2019-02-26T11:24:53.420Z,42.26
2019-02-26T11:27:24.942Z,45.98
2019-02-26T11:29:57.678Z,44.33
2019-02-26T11:32:30.176Z,42.61
2019-02-26T11:35:02.514Z,42.73
2019-02-26T11:37:33.101Z,42.73
2019-02-26T11:40:05.518Z,42.26
2019-02-26T11:42:36.626Z,43.43
2019-02-26T11:45:09.748Z,42.68
2019-02-26T11:47:43.760Z,42.12
2019-02-26T11:50:16.771Z,42.79
2019-02-26T11:52:51.908Z,42.48
2019-02-26T11:55:20.601Z,43.75
2019-02-26T11:57:52.001Z,43.03
2019-02-26T12:00:42.883Z,42.99
2019-02-26T12:03:15.260Z,45.22
2019-02-26T12:05:45.931Z,41.16
2019-02-26T12:08:19.358Z,44.92
2019-02-26T12:10:48.886Z,44.48
2019-02-26T12:13:22.216Z,40.78
2019-02-26T12:15:53.000Z,41.72
2019-02-26T12:18:24.110Z,43.13
2019-02-26T12:20:55.310Z,43.36
2019-02-26T12:23:26.611Z,38.52
2019-02-26T12:25:59.261Z,38.63
2019-02-26T12:28:32.460Z,42.24
2019-02-26T12:31:04.293Z,42.03
2019-02-26T12:33:35.210Z,41.50
2019-02-26T12:36:07.469Z,43.84
2019-02-26T12:38:38.501Z,41.05
2019-02-26T12:41:12.226Z,43.33
2019-02-26T12:43:45.809Z,45.62
2019-02-26T12:46:14.750Z,42.93
2019-02-26T12:48:47.701Z,42.33
2019-02-26T12:51:19.306Z,40.10
2019-02-26T12:53:51.248Z,39.65
2019-02-26T12:56:24.335Z,37.68
2019-02-26T12:58:54.857Z,38.75
2019-02-26T13:01:25.890Z,38.79
2019-02-26T13:03:56.839Z,40.60
2019-02-26T13:06:27.798Z,39.80
2019-02-26T13:08:58.698Z,39.39
2019-02-26T13:11:29.690Z,41.37
2019-02-26T13:14:01.198Z,42.29
2019-02-26T13:16:32.081Z,43.51
2019-02-26T13:19:04.897Z,42.86
2019-02-26T13:21:35.780Z,41.45
2019-02-26T13:24:13.916Z,43.31
2019-02-26T13:26:42.415Z,44.67
2019-02-26T13:29:12.121Z,44.18
2019-02-26T13:31:55.560Z,42.53
2019-02-26T13:34:15.699Z,42.74
2019-02-26T13:36:52.748Z,43.14
2019-02-26T13:39:26.117Z,41.02
2019-02-26T13:41:58.495Z,41.88
2019-02-26T13:44:25.550Z,42.81
2019-02-26T13:46:57.578Z,43.67
2019-02-26T13:49:28.530Z,40.76
2019-02-26T13:51:59.479Z,41.69
2019-02-26T13:54:30.560Z,41.87
2019-02-26T13:57:01.683Z,43.57
2019-02-26T13:59:32.778Z,45.75
2019-02-26T14:02:04.880Z,46.51
2019-02-26T14:04:35.940Z,45.87
2019-02-26T14:07:06.881Z,46.63
2019-02-26T14:09:37.992Z,43.42
2019-02-26T14:12:08.961Z,45.70
2019-02-26T14:14:40.150Z,43.93
2019-02-26T14:17:11.258Z,43.95
2019-02-26T14:19:42.338Z,46.98
2019-02-26T14:22:13.228Z,47.33
2019-02-26T14:24:44.262Z,48.14
2019-02-26T14:27:15.385Z,49.02
2019-02-26T14:29:46.428Z,48.55
2019-02-26T14:32:17.480Z,48.87
2019-02-26T14:34:48.678Z,49.41
2019-02-26T14:37:19.638Z,49.54
2019-02-26T14:39:50.600Z,50.10
2019-02-26T14:42:21.761Z,49.81
2019-02-26T14:44:52.890Z,48.17
2019-02-26T14:47:23.800Z,48.23
2019-02-26T14:49:54.783Z,48.92
2019-02-26T14:52:25.780Z,49.15
2019-02-26T14:54:56.979Z,48.94
2019-02-26T14:57:28.030Z,49.16
2019-02-26T14:59:59.261Z,50.53
2019-02-26T15:02:30.638Z,50.62
2019-02-26T15:05:01.740Z,50.11
2019-02-26T15:07:32.808Z,50.46
2019-02-26T15:10:03.804Z,50.58
2019-02-26T15:12:34.670Z,50.70
2019-02-26T15:15:05.995Z,50.34
2019-02-26T15:17:36.910Z,50.32
2019-02-26T15:20:09.631Z,50.27
2019-02-26T15:22:40.611Z,50.65
2019-02-26T15:25:22.269Z,50.92
2019-02-26T15:27:53.541Z,50.74
2019-02-26T15:30:25.201Z,50.61
2019-02-26T15:32:56.742Z,50.83
2019-02-26T15:35:28.653Z,51.24
2019-02-26T15:37:59.999Z,51.35
2019-02-26T15:40:31.300Z,51.08
2019-02-26T15:43:02.642Z,50.62
2019-02-26T15:45:33.730Z,51.29
2019-02-26T15:48:04.669Z,51.29
2019-02-26T15:50:37.743Z,51.61
2019-02-26T15:53:09.729Z,51.40
2019-02-26T15:55:41.392Z,51.12
2019-02-26T15:58:12.847Z,51.56
2019-02-26T16:00:44.400Z,51.60
2019-02-26T16:03:15.409Z,51.65
2019-02-26T16:05:46.979Z,51.68
2019-02-26T16:08:18.021Z,51.63
2019-02-26T16:10:48.963Z,51.86
2019-02-26T16:13:20.091Z,51.87
2019-02-26T16:15:53.719Z,51.86
2019-02-26T16:18:27.626Z,51.93
2019-02-26T16:20:59.976Z,51.97
2019-02-26T16:23:37.980Z,52.16
2019-02-26T16:26:09.890Z,52.29
2019-02-26T16:28:41.002Z,52.32
2019-02-26T16:31:11.914Z,52.62
2019-02-26T16:33:46.425Z,52.42
2019-02-26T16:36:15.655Z,52.68
2019-02-26T16:38:50.708Z,52.49
2019-02-26T16:41:19.211Z,52.75
2019-02-26T16:43:51.835Z,52.72
2019-02-26T16:46:23.461Z,52.94
2019-02-26T16:48:54.399Z,53.12
2019-02-26T16:51:25.222Z,53.19
2019-02-26T16:53:56.158Z,53.18
2019-02-26T16:56:27.098Z,53.19
2019-02-26T16:58:58.229Z,53.38
2019-02-26T17:01:29.679Z,53.41
2019-02-26T17:04:01.191Z,53.58
2019-02-26T17:06:32.279Z,53.63
2019-02-26T17:09:04.180Z,53.78
2019-02-26T17:11:36.731Z,54.15
2019-02-26T17:14:07.780Z,54.24
2019-02-26T17:16:40.021Z,54.37
2019-02-26T17:19:11.061Z,54.56
2019-02-26T17:21:42.361Z,54.69
2019-02-26T17:24:13.499Z,55.02
2019-02-26T17:26:44.391Z,55.16
2019-02-26T17:29:16.871Z,55.31
2019-02-26T17:31:48.951Z,55.61
2019-02-26T17:34:23.416Z,55.64
2019-02-26T17:36:53.689Z,55.80
2019-02-26T17:39:27.888Z,56.08
2019-02-26T17:41:58.655Z,56.08
2019-02-26T17:44:30.078Z,56.47
2019-02-26T17:47:01.338Z,56.71
2019-02-26T17:49:33.683Z,56.76
2019-02-26T17:52:06.539Z,56.64
2019-02-26T17:54:38.620Z,56.81
2019-02-26T17:57:09.723Z,57.45
2019-02-26T17:59:40.891Z,57.45
2019-02-26T18:02:12.829Z,57.21
2019-02-26T18:04:44.990Z,57.90
2019-02-26T18:07:19.579Z,57.15
2019-02-26T18:09:50.665Z,57.67
2019-02-26T18:12:21.804Z,58.37
2019-02-26T18:14:53.021Z,58.08
2019-02-26T18:17:24.550Z,57.64
2019-02-26T18:19:55.598Z,57.91
2019-02-26T18:22:27.140Z,58.28
2019-02-26T18:24:58.595Z,57.75
2019-02-26T18:27:30.610Z,58.12
2019-02-26T18:30:01.688Z,58.52
2019-02-26T18:32:33.169Z,58.55
2019-02-26T18:35:04.040Z,58.07
2019-02-26T18:37:36.698Z,58.14
2019-02-26T18:40:08.111Z,57.80
2019-02-26T18:42:41.347Z,57.50
2019-02-26T18:45:14.620Z,58.15
2019-02-26T18:47:47.585Z,58.16
2019-02-26T18:50:18.969Z,58.36
2019-02-26T18:52:49.772Z,58.10
2019-02-26T18:55:20.812Z,58.22
2019-02-26T18:57:52.008Z,57.68
2019-02-26T19:00:25.864Z,58.15
2019-02-26T19:02:58.670Z,58.20
2019-02-26T19:05:29.643Z,58.15
2019-02-26T19:08:00.982Z,58.23
2019-02-26T19:10:31.921Z,58.07
2019-02-26T19:13:03.689Z,58.22
2019-02-26T19:15:34.841Z,58.45
2019-02-26T19:18:06.038Z,59.30
2019-02-26T19:20:38.528Z,58.24
2019-02-26T19:23:10.261Z,58.50
2019-02-26T19:25:42.183Z,58.64
2019-02-26T19:28:13.461Z,59.11
2019-02-26T19:30:44.689Z,58.98
2019-02-26T19:33:15.940Z,59.32
2019-02-26T19:35:47.110Z,59.37
2019-02-26T19:38:17.963Z,58.94
2019-02-26T19:40:49.258Z,59.18
2019-02-26T19:43:20.519Z,58.87
2019-02-26T19:45:51.510Z,59.27
2019-02-26T19:48:22.660Z,59.79
2019-02-26T19:50:53.592Z,58.85
2019-02-26T19:53:26.770Z,59.04
2019-02-26T19:55:57.848Z,59.39
2019-02-26T19:58:31.704Z,59.70
2019-02-26T20:01:02.871Z,59.62
2019-02-26T20:03:39.998Z,60.14
2019-02-26T20:06:06.509Z,60.39
2019-02-26T20:08:37.751Z,60.59
2019-02-26T20:11:09.691Z,60.93
2019-02-26T20:13:42.124Z,61.38
2019-02-26T20:16:13.424Z,61.76
2019-02-26T20:18:44.590Z,61.78
2019-02-26T20:21:16.886Z,62.29
2019-02-26T20:23:48.678Z,62.51
2019-02-26T20:26:19.982Z,62.66
2019-02-26T20:28:51.001Z,62.82
2019-02-26T20:31:22.458Z,62.87
2019-02-26T20:33:54.013Z,63.55
2019-02-26T20:36:25.293Z,62.91
2019-02-26T20:38:56.171Z,63.21
2019-02-26T20:41:27.700Z,63.39
2019-02-26T20:43:59.140Z,63.54
2019-02-26T20:46:30.202Z,63.63
2019-02-26T20:49:01.380Z,63.99
2019-02-26T20:51:33.708Z,64.08
2019-02-26T20:54:04.791Z,64.25
2019-02-26T20:56:36.191Z,64.46
2019-02-26T20:59:07.215Z,64.54
2019-02-26T21:01:40.093Z,64.36
2019-02-26T21:04:10.784Z,64.45
2019-02-26T21:06:41.668Z,65.14
2019-02-26T21:09:12.864Z,65.12
2019-02-26T21:11:44.301Z,65.36
2019-02-26T21:14:15.582Z,65.31
2019-02-26T21:16:46.526Z,66.26
2019-02-26T21:19:17.810Z,66.19
2019-02-26T21:21:49.574Z,65.81
2019-02-26T21:24:20.430Z,65.72
2019-02-26T21:26:52.916Z,66.00
2019-02-26T21:29:24.255Z,66.16
2019-02-26T21:31:55.170Z,66.32
2019-02-26T21:34:26.564Z,66.22
2019-02-26T21:37:00.067Z,66.39
2019-02-26T21:39:30.874Z,66.75
2019-02-26T21:42:01.760Z,66.95
2019-02-26T21:44:32.652Z,67.67
2019-02-26T21:47:03.450Z,67.70
2019-02-26T21:49:34.380Z,67.14
2019-02-26T21:52:08.746Z,66.96
2019-02-26T21:54:40.196Z,67.63
2019-02-26T21:57:10.988Z,67.43
2019-02-26T21:59:49.873Z,68.14
2019-02-26T22:02:18.634Z,67.68
2019-02-26T22:04:47.320Z,67.67
2019-02-26T22:07:19.081Z,67.96
2019-02-26T22:09:51.250Z,68.16
2019-02-26T22:12:24.137Z,69.33
2019-02-26T22:14:56.140Z,68.08
2019-02-26T22:17:27.169Z,68.80
2019-02-26T22:19:58.098Z,68.18
2019-02-26T22:22:28.911Z,68.65
2019-02-26T22:25:09.121Z,70.26
2019-02-26T22:27:33.716Z,68.05
2019-02-26T22:30:06.916Z,68.50
2019-02-26T22:32:38.825Z,69.45
2019-02-26T22:35:10.359Z,69.58
2019-02-26T22:37:42.320Z,68.95
2019-02-26T22:40:13.365Z,69.23
2019-02-26T22:42:44.437Z,70.76
2019-02-26T22:45:15.520Z,70.84
2019-02-26T22:47:46.503Z,69.38
2019-02-26T22:50:17.484Z,69.57
2019-02-26T22:52:48.251Z,69.38
2019-02-26T22:55:19.188Z,70.33
2019-02-26T22:57:50.270Z,69.90
2019-02-26T23:01:00.030Z,70.00
2019-02-26T23:03:32.951Z,69.92
2019-02-26T23:06:04.852Z,70.16
2019-02-26T23:08:36.250Z,69.93
2019-02-26T23:11:07.968Z,70.43
2019-02-26T23:13:39.658Z,70.89
2019-02-26T23:16:11.180Z,70.29
2019-02-26T23:18:42.851Z,70.66
2019-02-26T23:21:16.265Z,70.34
2019-02-26T23:23:48.569Z,70.88
2019-02-26T23:26:19.998Z,70.38
2019-02-26T23:28:54.490Z,70.80
2019-02-26T23:31:25.170Z,72.10
2019-02-26T23:33:56.572Z,71.50
2019-02-26T23:36:28.539Z,72.66
2019-02-26T23:39:00.281Z,71.86
2019-02-26T23:41:33.792Z,71.57
2019-02-26T23:44:05.648Z,71.46
2019-02-26T23:46:37.227Z,71.66
2019-02-26T23:49:08.658Z,71.62
2019-02-26T23:51:40.320Z,71.46
2019-02-26T23:54:12.690Z,71.99
2019-02-26T23:56:42.796Z,72.00
2019-02-26T23:59:14.024Z,74.05
